Time;durP1;ratioP1;P1;durP2;ratioP2;P2;SDS_P1;SDS_P2;PMS_P1;PMS_P2;Temp;Humidity;BMP_temperature;BMP_pressure;BME280_temperature;BME280_humidity;BME280_pressure;Samples;Min_cycle;Max_cycle;Signal;HPM_P1;HPM_P2
2023/02/15 00:01:08;;;;;;;;;;;;;;;2.30;60.51;96154.69;5067085;28;19912;-78
2023/02/15 00:03:33;;;;;;;;;;;;;;;2.34;60.49;96160.16;5067775;28;20459;-76
2023/02/15 00:05:59;;;;;;;;;;;;;;;2.26;60.89;96158.44;5065233;28;19916;-78
2023/02/15 00:08:24;;;;;;;;;;;;;;;2.28;60.96;96162.38;5068389;28;20024;-77
2023/02/15 00:10:49;;;;;;;;;;;;;;;2.27;60.93;96160.00;5064895;28;19920;-76
2023/02/15 00:13:15;;;;;;;;;;;;;;;2.22;61.04;96163.00;5067234;28;19913;-77
2023/02/15 00:15:40;;;;;;;;;;;;;;;2.26;60.79;96163.88;5066641;28;19922;-77
2023/02/15 00:18:05;;;;;;;;;;;;;;;2.31;60.82;96169.03;5065390;28;19916;-77
2023/02/15 00:20:30;;;;;;;;;;;;;;;2.31;60.75;96177.19;5066700;28;19918;-76
2023/02/15 00:22:56;;;;;;;;;;;;;;;2.35;60.50;96169.88;5066206;28;19912;-77
2023/02/15 00:25:21;;;;;;;;;;;;;;;2.33;60.55;96169.44;5065440;28;19916;-77
2023/02/15 00:27:46;;;;;;;;;;;;;;;2.30;60.74;96160.09;5066009;28;20011;-78
2023/02/15 00:30:12;;;;;;;;;;;;;;;2.27;60.78;96166.22;5067195;28;20079;-77
2023/02/15 00:32:37;;;;;;;;;;;;;;;2.22;61.05;96163.78;5065079;28;19944;-76
2023/02/15 00:35:02;;;;;;;;;;;;;;;2.21;61.08;96175.00;5066494;28;20002;-77
2023/02/15 00:37:27;;;;;;;;;;;;;;;2.19;61.04;96175.34;5066645;28;20383;-77
2023/02/15 00:39:53;;;;;;;;;;;;;;;2.18;60.98;96171.06;5064427;28;19916;-77
2023/02/15 00:42:18;;;;;;;;;;;;;;;2.21;60.87;96178.50;5065018;28;20072;-76
2023/02/15 00:44:43;;;;;;;;;;;;;;;2.18;60.84;96170.25;5066041;28;19919;-77
2023/02/15 00:47:09;;;;;;;;;;;;;;;2.19;60.65;96171.84;5066649;28;19923;-76
2023/02/15 00:49:34;;;;;;;;;;;;;;;2.29;60.48;96168.56;5064446;28;19919;-75
2023/02/15 00:51:59;;;;;;;;;;;;;;;2.29;60.51;96182.16;5064926;28;20034;-78
2023/02/15 00:54:24;;;;;;;;;;;;;;;2.30;60.43;96179.09;5064608;28;19935;-78
2023/02/15 00:56:49;;;;;;;;;;;;;;;2.33;60.21;96175.66;5065812;28;19913;-77
2023/02/15 00:59:15;;;;;;;;;;;;;;;2.37;60.15;96173.03;5066009;28;20349;-77
2023/02/15 01:01:40;;;;;;;;;;;;;;;2.35;60.17;96178.84;5064048;28;19912;-78
2023/02/15 01:04:05;;;;;;;;;;;;;;;2.40;59.96;96175.81;5066718;28;20046;-79
2023/02/15 01:06:30;;;;;;;;;;;;;;;2.39;59.95;96173.47;5065571;28;20610;-76
2023/02/15 01:08:56;;;;;;;;;;;;;;;2.42;59.82;96174.69;5066334;28;19999;-76
2023/02/15 01:11:22;;;;;;;;;;;;;;;2.45;59.63;96160.41;5064350;28;19931;-76
2023/02/15 01:13:51;;;;;;;;;;;;;;;2.52;59.46;96171.41;5064377;28;19917;-77
2023/02/15 01:16:17;;;;;;;;;;;;;;;2.53;59.39;96170.28;5065733;28;20345;-77
2023/02/15 01:18:42;;;;;;;;;;;;;;;2.51;59.50;96164.41;5064203;28;19913;-79
2023/02/15 01:21:15;;;;;;;;;;;;;;;2.47;59.68;96160.84;5065829;28;19912;-76
2023/02/15 01:23:41;;;;;;;;;;;;;;;2.37;59.94;96159.47;5063582;28;19978;-77
2023/02/15 01:26:06;;;;;;;;;;;;;;;2.32;60.18;96157.81;5064442;28;19948;-76
2023/02/15 01:28:32;;;;;;;;;;;;;;;2.26;60.56;96163.88;5065451;28;19955;-78
2023/02/15 01:30:58;;;;;;;;;;;;;;;2.23;60.73;96159.13;5064308;28;19955;-77
2023/02/15 01:33:24;;;;;;;;;;;;;;;2.22;60.64;96158.34;5063508;28;20291;-77
2023/02/15 01:35:49;;;;;;;;;;;;;;;2.23;60.64;96151.78;5065029;28;19923;-77
2023/02/15 01:38:14;;;;;;;;;;;;;;;2.21;60.74;96145.94;5046994;28;20363;-78
2023/02/15 01:40:40;;;;;;;;;;;;;;;2.13;61.29;96147.72;5063385;28;19912;-76
2023/02/15 01:43:08;;;;;;;;;;;;;;;2.10;61.21;96145.69;5064445;28;19916;-77
2023/02/15 01:45:33;;;;;;;;;;;;;;;2.11;61.16;96158.09;5065007;28;19935;-77
2023/02/15 01:48:06;;;;;;;;;;;;;;;2.15;61.09;96152.78;5065236;28;20366;-76
2023/02/15 01:50:31;;;;;;;;;;;;;;;2.22;60.83;96152.94;5063564;28;19919;-75
2023/02/15 01:52:58;;;;;;;;;;;;;;;2.25;60.82;96146.03;5065070;28;19912;-77
2023/02/15 01:55:23;;;;;;;;;;;;;;;2.20;60.82;96141.66;5064022;28;19913;-78
2023/02/15 01:57:49;;;;;;;;;;;;;;;2.22;60.92;96135.88;5063529;28;20502;-77
2023/02/15 02:00:16;;;;;;;;;;;;;;;2.26;60.85;96132.09;5063873;28;20011;-77
2023/02/15 02:02:42;;;;;;;;;;;;;;;2.26;60.94;96131.31;5050420;28;19912;-77
2023/02/15 02:05:07;;;;;;;;;;;;;;;2.21;61.01;96134.28;5064316;28;19912;-76
2023/02/15 02:07:34;;;;;;;;;;;;;;;2.19;61.08;96129.22;5065067;28;19916;-77
2023/02/15 02:09:59;;;;;;;;;;;;;;;2.20;61.25;96130.81;5063574;28;19957;-76
2023/02/15 02:12:25;;;;;;;;;;;;;;;2.12;61.54;96131.75;5066483;28;20043;-77
2023/02/15 02:14:50;;;;;;;;;;;;;;;2.07;61.58;96132.06;5064224;28;19953;-77
2023/02/15 02:17:15;;;;;;;;;;;;;;;2.11;61.64;96143.75;5070605;28;19912;-77
2023/02/15 02:19:55;;;;;;;;;;;;;;;2.11;61.61;96141.81;5068868;28;19923;-77
2023/02/15 02:22:39;;;;;;;;;;;;;;;2.13;61.73;96134.16;5069262;28;19912;-77
2023/02/15 02:25:11;;;;;;;;;;;;;;;2.12;61.71;96150.75;5068773;28;19924;-77
2023/02/15 02:27:39;;;;;;;;;;;;;;;2.11;61.99;96141.81;5068919;28;20396;-77
2023/02/15 02:30:19;;;;;;;;;;;;;;;2.12;61.91;96137.19;5068901;28;19923;-77
2023/02/15 02:33:03;;;;;;;;;;;;;;;2.11;61.94;96147.25;5068226;28;19912;-77
2023/02/15 02:35:34;;;;;;;;;;;;;;;2.15;61.74;96143.84;5069254;28;19915;-76
2023/02/15 02:38:03;;;;;;;;;;;;;;;2.12;61.81;96148.03;5068690;28;19955;-77
2023/02/15 02:40:39;;;;;;;;;;;;;;;2.16;61.97;96145.41;5067312;28;19913;-76
2023/02/15 02:43:23;;;;;;;;;;;;;;;2.20;61.64;96152.50;5066901;28;20178;-77
2023/02/15 02:45:53;;;;;;;;;;;;;;;2.19;61.77;96145.50;5068101;28;20156;-77
2023/02/15 02:48:22;;;;;;;;;;;;;;;2.16;61.92;96145.41;5067912;28;20401;-77
2023/02/15 02:50:47;;;;;;;;;;;;;;;2.13;62.11;96146.94;5066962;28;19912;-78
2023/02/15 02:53:13;;;;;;;;;;;;;;;2.11;62.32;96151.91;5068703;28;20031;-77
2023/02/15 02:55:41;;;;;;;;;;;;;;;2.16;62.04;96145.41;5068547;28;19982;-77
2023/02/15 02:58:11;;;;;;;;;;;;;;;2.16;62.09;96150.84;5068986;28;19934;-77
2023/02/15 03:00:44;;;;;;;;;;;;;;;2.26;61.96;96164.66;5069643;28;19959;-77
2023/02/15 03:03:11;;;;;;;;;;;;;;;2.35;61.57;96159.84;5066667;28;20307;-76
2023/02/15 03:05:38;;;;;;;;;;;;;;;2.38;61.56;96172.69;5068952;28;19920;-76
2023/02/15 03:08:05;;;;;;;;;;;;;;;2.43;61.60;96165.41;5066631;28;19918;-76
2023/02/15 03:10:31;;;;;;;;;;;;;;;2.44;61.54;96164.28;5067159;28;19912;-77
2023/02/15 03:12:56;;;;;;;;;;;;;;;2.45;61.57;96165.84;5066713;28;20012;-78
2023/02/15 03:15:22;;;;;;;;;;;;;;;2.47;61.53;96169.78;5067261;28;20080;-78
2023/02/15 03:17:49;;;;;;;;;;;;;;;2.50;61.54;96171.00;5066743;28;20110;-78
2023/02/15 03:20:19;;;;;;;;;;;;;;;2.51;61.41;96165.19;5066266;28;19924;-76
2023/02/15 03:22:46;;;;;;;;;;;;;;;2.50;61.64;96171.00;5067290;28;19913;-77
2023/02/15 03:25:21;;;;;;;;;;;;;;;2.47;61.66;96167.06;5066358;28;20315;-77
2023/02/15 03:27:47;;;;;;;;;;;;;;;2.54;61.51;96169.16;5065720;28;19912;-78
2023/02/15 03:30:13;;;;;;;;;;;;;;;2.63;61.17;96172.44;5066693;28;19934;-77
2023/02/15 03:32:38;;;;;;;;;;;;;;;2.65;61.15;96164.75;5067302;28;20374;-78
2023/02/15 03:35:03;;;;;;;;;;;;;;;2.65;61.30;96172.88;5067229;28;19913;-76
2023/02/15 03:37:41;;;;;;;;;;;;;;;2.70;60.97;96169.09;5065881;28;19919;-78
2023/02/15 03:43:20;;;;;;;;;;;;;;;2.72;61.22;96166.81;5066278;28;19943;-78
2023/02/15 03:45:54;;;;;;;;;;;;;;;2.65;61.19;96159.31;5066894;28;19916;-76
2023/02/15 03:48:27;;;;;;;;;;;;;;;2.63;61.42;96161.56;5067873;28;19974;-77
2023/02/15 03:53:37;;;;;;;;;;;;;;;2.58;61.76;96161.84;5067711;28;19919;-76
2023/02/15 03:56:02;;;;;;;;;;;;;;;2.53;62.04;96154.00;5068377;28;19912;-77
2023/02/15 04:04:20;;;;;;;;;;;;;;;2.64;61.72;96168.59;5067439;28;20015;-77
2023/02/15 04:06:46;;;;;;;;;;;;;;;2.68;61.40;96172.16;5048930;28;20391;-77
2023/02/15 04:11:55;;;;;;;;;;;;;;;2.70;61.53;96171.81;5065402;28;19966;-78
2023/02/15 04:17:08;;;;;;;;;;;;;;;2.66;61.66;96183.38;5065611;28;19970;-76
2023/02/15 04:25:13;;;;;;;;;;;;;;;2.69;61.80;96190.00;5066660;28;20009;-78
2023/02/15 04:27:39;;;;;;;;;;;;;;;2.72;61.80;96196.69;5067589;28;20015;-77
2023/02/15 04:30:05;;;;;;;;;;;;;;;2.80;61.37;96195.69;5065499;28;20026;-77
2023/02/15 04:32:30;;;;;;;;;;;;;;;2.83;61.31;96208.56;5066264;28;19962;-78
2023/02/15 04:34:56;;;;;;;;;;;;;;;2.85;61.33;96204.34;5066841;28;19920;-77
2023/02/15 04:37:21;;;;;;;;;;;;;;;2.88;61.25;96209.06;5066617;28;19989;-78
2023/02/15 04:39:46;;;;;;;;;;;;;;;2.85;61.15;96214.41;5074129;28;19920;-76
2023/02/15 04:42:11;;;;;;;;;;;;;;;2.80;61.40;96214.69;5078901;28;19957;-78
2023/02/15 04:44:37;;;;;;;;;;;;;;;2.85;61.40;96204.34;5067280;28;20022;-78
2023/02/15 04:47:02;;;;;;;;;;;;;;;2.88;61.20;96208.28;5064329;28;19912;-76
2023/02/15 04:49:27;;;;;;;;;;;;;;;2.94;61.11;96209.56;5066299;28;19919;-77
2023/02/15 04:51:53;;;;;;;;;;;;;;;2.98;61.00;96209.63;5064962;28;20371;-76
2023/02/15 04:54:18;;;;;;;;;;;;;;;2.99;61.16;96219.38;5068802;28;20349;-77
2023/02/15 04:56:43;;;;;;;;;;;;;;;2.97;60.94;96208.06;5066420;28;20258;-77
2023/02/15 04:59:12;;;;;;;;;;;;;;;3.03;60.90;96214.78;5064345;28;19912;-76
2023/02/15 05:01:37;;;;;;;;;;;;;;;3.01;60.75;96226.00;5064958;28;19927;-76
2023/02/15 05:04:02;;;;;;;;;;;;;;;3.03;60.58;96229.16;5064125;28;19912;-76
2023/02/15 05:06:28;;;;;;;;;;;;;;;3.04;60.77;96219.88;5064922;28;19912;-77
2023/02/15 05:08:53;;;;;;;;;;;;;;;3.08;60.62;96218.00;5065667;28;19999;-76
2023/02/15 05:11:18;;;;;;;;;;;;;;;3.10;60.49;96223.09;5064477;28;19928;-76
2023/02/15 05:13:43;;;;;;;;;;;;;;;3.12;60.36;96232.47;5065906;28;19912;-77
2023/02/15 05:16:09;;;;;;;;;;;;;;;3.11;60.43;96225.47;5065628;28;20024;-76
2023/02/15 05:18:34;;;;;;;;;;;;;;;3.09;60.42;96226.94;5065028;28;19913;-77
2023/02/15 05:20:59;;;;;;;;;;;;;;;3.05;60.42;96226.88;5063893;28;19916;-76
2023/02/15 05:23:24;;;;;;;;;;;;;;;3.01;60.73;96238.81;5064849;28;19920;-80
2023/02/15 05:28:34;;;;;;;;;;;;;;;3.04;60.56;96246.25;5065639;28;19991;-77
2023/02/15 05:31:08;;;;;;;;;;;;;;;3.07;60.52;96253.69;5065925;28;20006;-76
2023/02/15 05:33:33;;;;;;;;;;;;;;;3.10;60.41;96245.63;5064069;28;20345;-77
2023/02/15 05:35:59;;;;;;;;;;;;;;;3.12;60.32;96254.19;5065802;28;19913;-77
2023/02/15 05:38:24;;;;;;;;;;;;;;;3.15;60.28;96247.25;5065170;28;19963;-77
2023/02/15 05:40:50;;;;;;;;;;;;;;;3.20;60.21;96255.13;5065512;28;20352;-77
2023/02/15 05:43:15;;;;;;;;;;;;;;;3.24;59.86;96255.22;5065684;28;19919;-78
2023/02/15 05:45:43;;;;;;;;;;;;;;;3.22;59.99;96258.28;5065347;28;20008;-76
2023/02/15 05:48:09;;;;;;;;;;;;;;;3.25;59.84;96259.50;5047120;28;19965;-77
2023/02/15 05:50:34;;;;;;;;;;;;;;;3.26;59.95;96255.63;5067384;28;20021;-77
2023/02/15 05:52:59;;;;;;;;;;;;;;;3.32;59.87;96268.56;5066821;28;19959;-76
2023/02/15 05:55:25;;;;;;;;;;;;;;;3.37;59.47;96260.13;5065020;28;19921;-77
2023/02/15 05:57:50;;;;;;;;;;;;;;;3.42;59.31;96257.13;5065828;28;19966;-76
2023/02/15 06:00:15;;;;;;;;;;;;;;;3.44;59.33;96262.19;5064651;28;19912;-77
2023/02/15 06:02:41;;;;;;;;;;;;;;;3.43;59.42;96266.06;5065793;28;19916;-76
2023/02/15 06:05:06;;;;;;;;;;;;;;;3.46;59.18;96266.16;5046993;28;20028;-76
2023/02/15 06:07:31;;;;;;;;;;;;;;;3.44;59.32;96265.72;5065016;28;20299;-78
2023/02/15 06:09:57;;;;;;;;;;;;;;;3.53;58.91;96262.00;5064935;28;20003;-77
2023/02/15 06:12:22;;;;;;;;;;;;;;;3.55;58.91;96262.41;5063660;28;19939;-76
2023/02/15 06:14:47;;;;;;;;;;;;;;;3.53;58.89;96270.94;5065196;28;19913;-76
2023/02/15 06:17:12;;;;;;;;;;;;;;;3.59;58.78;96264.06;5064537;28;20302;-76
2023/02/15 06:19:38;;;;;;;;;;;;;;;3.61;58.62;96266.41;5065162;28;19912;-77
2023/02/15 06:22:03;;;;;;;;;;;;;;;3.59;58.59;96274.16;5064887;28;19912;-76
2023/02/15 06:24:28;;;;;;;;;;;;;;;3.55;58.48;96274.06;5063772;28;19912;-76
2023/02/15 06:26:53;;;;;;;;;;;;;;;3.67;58.42;96275.84;5065256;28;19970;-77
2023/02/15 06:29:19;;;;;;;;;;;;;;;3.69;58.23;96282.53;5063508;28;19916;-77
2023/02/15 06:31:44;;;;;;;;;;;;;;;3.69;58.20;96282.53;5065084;28;19912;-76
2023/02/15 06:34:09;;;;;;;;;;;;;;;3.69;58.33;96276.28;5064562;28;20347;-75
2023/02/15 06:36:34;;;;;;;;;;;;;;;3.70;58.23;96270.50;5065805;28;19916;-76
2023/02/15 06:39:00;;;;;;;;;;;;;;;3.71;58.06;96276.72;5063487;28;20413;-77
2023/02/15 06:41:25;;;;;;;;;;;;;;;3.68;58.07;96266.56;5065402;28;20280;-77
2023/02/15 06:43:50;;;;;;;;;;;;;;;3.69;58.01;96263.47;5065565;28;19978;-77
2023/02/15 06:46:16;;;;;;;;;;;;;;;3.68;58.14;96275.50;5063189;28;20121;-76
2023/02/15 06:48:41;;;;;;;;;;;;;;;3.63;58.17;96269.59;5050263;28;19943;-77
2023/02/15 06:51:06;;;;;;;;;;;;;;;3.61;58.17;96263.69;5065109;28;20037;-77
2023/02/15 06:53:31;;;;;;;;;;;;;;;3.56;58.27;96272.16;5064955;28;19923;-75
2023/02/15 06:56:00;;;;;;;;;;;;;;;3.53;58.51;96273.66;5064534;28;20318;-75
2023/02/15 06:58:26;;;;;;;;;;;;;;;3.60;58.15;96273.00;5047212;28;19912;-75
2023/02/15 07:00:51;;;;;;;;;;;;;;;3.66;58.29;96274.28;5063298;28;19913;-77
2023/02/15 07:03:16;;;;;;;;;;;;;;;3.69;57.91;96271.66;5067761;28;19923;-76
2023/02/15 07:05:43;;;;;;;;;;;;;;;3.78;57.56;96274.13;5071128;28;20312;-76
2023/02/15 07:08:08;;;;;;;;;;;;;;;3.88;57.11;96272.75;5087989;28;19931;-75
2023/02/15 07:10:33;;;;;;;;;;;;;;;3.91;57.08;96280.22;5077526;28;19913;-76
2023/02/15 07:12:58;;;;;;;;;;;;;;;3.98;57.06;96274.88;5068388;28;19916;-76
2023/02/15 07:15:24;;;;;;;;;;;;;;;3.99;56.79;96274.53;5067364;28;19916;-77
2023/02/15 07:17:49;;;;;;;;;;;;;;;3.97;56.74;96274.09;5068000;28;20382;-76
2023/02/15 07:20:22;;;;;;;;;;;;;;;3.91;57.00;96274.78;5066807;28;20031;-76
2023/02/15 07:22:47;;;;;;;;;;;;;;;3.92;57.02;96279.84;5068835;28;19982;-77
2023/02/15 07:25:13;;;;;;;;;;;;;;;4.03;56.65;96282.75;5066270;28;20390;-77
2023/02/15 07:27:38;;;;;;;;;;;;;;;4.09;56.45;96284.03;5067091;28;19919;-76
2023/02/15 07:30:04;;;;;;;;;;;;;;;4.11;56.48;96284.44;5067822;28;19923;-76
2023/02/15 07:32:30;;;;;;;;;;;;;;;4.15;56.19;96287.25;5067691;28;19912;-77
2023/02/15 07:34:55;;;;;;;;;;;;;;;4.26;55.93;96286.28;5066149;28;19919;-77
2023/02/15 07:37:20;;;;;;;;;;;;;;;4.36;55.72;96279.44;5068135;28;20354;-75
2023/02/15 07:39:45;;;;;;;;;;;;;;;4.41;55.39;96275.59;5066487;28;19912;-78
2023/02/15 07:42:11;;;;;;;;;;;;;;;4.35;55.59;96271.63;5067513;28;19974;-78
2023/02/15 07:44:36;;;;;;;;;;;;;;;4.27;55.91;96270.72;5068912;28;19920;-77
2023/02/15 07:47:01;;;;;;;;;;;;;;;4.30;55.96;96271.91;5070533;28;19913;-77
2023/02/15 07:49:26;;;;;;;;;;;;;;;4.19;56.15;96266.31;5067073;28;20314;-76
2023/02/15 07:51:52;;;;;;;;;;;;;;;4.18;56.29;96268.22;5067600;28;19917;-78
2023/02/15 07:54:17;;;;;;;;;;;;;;;4.20;56.36;96268.66;5067350;28;20121;-76
2023/02/15 07:56:42;;;;;;;;;;;;;;;4.21;56.52;96266.72;5067485;28;19913;-77
2023/02/15 07:59:08;;;;;;;;;;;;;;;4.27;56.38;96273.44;5066418;28;19912;-77
2023/02/15 08:01:36;;;;;;;;;;;;;;;4.31;56.25;96266.13;5066516;28;19946;-77
2023/02/15 08:04:01;;;;;;;;;;;;;;;4.26;56.28;96271.88;5066843;28;19916;-77
2023/02/15 08:06:27;;;;;;;;;;;;;;;4.30;56.05;96266.47;5065975;28;19920;-77
2023/02/15 08:08:53;;;;;;;;;;;;;;;4.36;55.72;96270.47;5067015;28;19936;-78
2023/02/15 08:11:35;;;;;;;;;;;;;;;4.37;55.61;96264.69;5067288;28;19912;-76
2023/02/15 08:14:11;;;;;;;;;;;;;;;4.43;55.27;96270.59;5066365;28;19973;-77
2023/02/15 08:16:40;;;;;;;;;;;;;;;4.52;54.97;96266.47;5065655;28;19985;-77
2023/02/15 08:19:09;;;;;;;;;;;;;;;4.46;55.01;96267.13;5065614;28;19912;-77
2023/02/15 08:21:35;;;;;;;;;;;;;;;4.45;54.79;96271.78;5066548;28;20303;-76
2023/02/15 08:24:01;;;;;;;;;;;;;;;4.34;55.14;96268.13;5065831;28;19913;-77
2023/02/15 08:26:27;;;;;;;;;;;;;;;4.25;55.00;96260.22;5066568;28;19919;-78
2023/02/15 08:28:52;;;;;;;;;;;;;;;4.42;54.88;96278.00;5065775;28;20045;-78
2023/02/15 08:31:17;;;;;;;;;;;;;;;4.40;54.63;96269.38;5066440;28;20007;-76
2023/02/15 08:33:44;;;;;;;;;;;;;;;4.37;54.61;96274.78;5067004;28;19916;-77
2023/02/15 08:36:10;;;;;;;;;;;;;;;4.41;54.41;96268.22;5066808;28;19928;-77
2023/02/15 08:38:35;;;;;;;;;;;;;;;4.40;54.20;96283.00;5064971;28;19919;-75
2023/02/15 08:41:10;;;;;;;;;;;;;;;4.37;54.16;96266.63;5066497;28;19916;-76
2023/02/15 08:43:36;;;;;;;;;;;;;;;4.39;53.64;96273.25;5068798;28;20476;-77
2023/02/15 08:46:01;;;;;;;;;;;;;;;4.49;53.25;96280.03;5065707;28;19912;-77
2023/02/15 08:48:27;;;;;;;;;;;;;;;4.63;52.79;96282.19;5065208;28;20007;-77
2023/02/15 08:50:52;;;;;;;;;;;;;;;4.68;52.46;96273.69;5066808;28;19955;-77
2023/02/15 08:53:21;;;;;;;;;;;;;;;4.61;52.67;96270.88;5066760;28;20334;-77
2023/02/15 08:55:46;;;;;;;;;;;;;;;4.66;53.12;96278.75;5066324;28;19912;-77
2023/02/15 08:58:12;;;;;;;;;;;;;;;4.75;52.80;96271.09;5066409;28;20003;-76
2023/02/15 09:00:37;;;;;;;;;;;;;;;4.75;52.14;96281.97;5066050;28;20008;-75
2023/02/15 09:03:03;;;;;;;;;;;;;;;4.86;52.10;96273.97;5066154;28;19912;-76
2023/02/15 09:05:28;;;;;;;;;;;;;;;5.04;51.76;96273.06;5065814;28;19952;-76
2023/02/15 09:07:53;;;;;;;;;;;;;;;5.00;51.69;96276.91;5065101;28;20322;-77
2023/02/15 09:10:19;;;;;;;;;;;;;;;5.05;51.37;96279.31;5064423;28;19923;-76
2023/02/15 09:12:44;;;;;;;;;;;;;;;5.09;51.72;96284.81;5064604;28;19961;-78
2023/02/15 09:15:10;;;;;;;;;;;;;;;5.25;51.06;96271.78;5066335;28;19935;-80
2023/02/15 09:17:35;;;;;;;;;;;;;;;5.36;50.89;96256.34;5064580;28;20386;-76
2023/02/15 09:20:01;;;;;;;;;;;;;;;5.43;50.73;96270.06;5064690;28;20303;-77
2023/02/15 09:22:26;;;;;;;;;;;;;;;5.57;50.40;96259.34;5073373;28;19966;-77
2023/02/15 09:24:51;;;;;;;;;;;;;;;5.58;50.31;96273.75;5088501;28;19912;-79
2023/02/15 09:27:17;;;;;;;;;;;;;;;5.63;50.17;96269.91;5070966;28;20339;-78
2023/02/15 09:29:42;;;;;;;;;;;;;;;5.72;49.96;96273.13;5066516;28;19919;-78
2023/02/15 09:32:07;;;;;;;;;;;;;;;5.81;49.75;96274.41;5064843;28;19912;-78
2023/02/15 09:34:32;;;;;;;;;;;;;;;5.89;49.27;96271.75;5069681;28;19991;-77
2023/02/15 09:36:58;;;;;;;;;;;;;;;5.80;49.47;96274.78;5073029;28;19912;-77
2023/02/15 09:39:24;;;;;;;;;;;;;;;5.78;49.55;96277.09;5072514;28;20574;-80
2023/02/15 09:41:49;;;;;;;;;;;;;;;5.89;49.65;96272.53;5069695;28;20053;-78
2023/02/15 09:44:24;;;;;;;;;;;;;;;6.01;49.43;96272.31;5066638;28;19921;-77
2023/02/15 09:47:06;;;;;;;;;;;;;;;6.19;48.56;96271.69;5065336;28;19927;-77
2023/02/15 09:49:35;;;;;;;;;;;;;;;6.32;48.28;96273.00;5064573;28;19931;-78
2023/02/15 09:52:04;;;;;;;;;;;;;;;6.50;48.15;96273.16;5063906;28;19923;-76
2023/02/15 09:54:42;;;;;;;;;;;;;;;6.64;47.31;96265.84;5065401;28;20433;-77
2023/02/15 09:57:13;;;;;;;;;;;;;;;6.49;47.55;96269.63;5065289;28;19997;-78
2023/02/15 09:59:48;;;;;;;;;;;;;;;6.48;47.02;96267.25;5064239;28;20343;-76
2023/02/15 10:02:19;;;;;;;;;;;;;;;6.76;46.69;96261.22;5065527;28;19912;-78
2023/02/15 10:04:55;;;;;;;;;;;;;;;6.96;46.20;96262.56;5065302;28;19942;-76
2023/02/15 10:07:23;;;;;;;;;;;;;;;7.44;44.91;96260.47;5064400;28;19913;-77
2023/02/15 10:09:48;;;;;;;;;;;;;;;7.35;45.14;96268.25;5064924;28;20062;-78
2023/02/15 10:12:20;;;;;;;;;;;;;;;7.33;45.08;96258.84;5065362;28;19959;-78
2023/02/15 10:14:57;;;;;;;;;;;;;;;7.35;45.06;96268.25;5065217;28;19913;-78
2023/02/15 10:17:35;;;;;;;;;;;;;;;7.71;43.71;96252.75;5065174;28;19985;-76
2023/02/15 10:20:10;;;;;;;;;;;;;;;7.60;43.99;96257.41;5065480;28;19912;-77
2023/02/15 10:22:54;;;;;;;;;;;;;;;7.91;43.53;96249.66;5065561;28;19916;-76
2023/02/15 10:25:37;;;;;;;;;;;;;;;7.95;43.50;96255.94;5065466;28;19939;-77
2023/02/15 10:28:07;;;;;;;;;;;;;;;8.03;43.12;96254.00;5065253;28;20274;-78
2023/02/15 10:30:41;;;;;;;;;;;;;;;8.17;43.04;96252.06;5063265;28;19998;-77
2023/02/15 10:33:29;;;;;;;;;;;;;;;8.14;43.06;96243.84;5065119;28;19912;-76
2023/02/15 10:36:04;;;;;;;;;;;;;;;8.07;42.86;96241.09;5062914;28;19913;-75
2023/02/15 10:38:48;;;;;;;;;;;;;;;8.32;42.32;96241.16;5071358;28;19912;-77
2023/02/15 10:41:19;;;;;;;;;;;;;;;9.82;39.79;96236.13;5067795;28;20466;-77
2023/02/15 10:43:50;;;;;;;;;;;;;;;10.49;38.15;96243.19;5068532;28;20328;-77
2023/02/15 10:46:15;;;;;;;;;;;;;;;10.30;38.61;96235.47;5067416;28;19962;-79
2023/02/15 10:48:46;;;;;;;;;;;;;;;10.40;38.28;96231.09;5068853;28;19920;-78
2023/02/15 10:51:15;;;;;;;;;;;;;;;12.46;34.53;96237.03;5068929;28;20033;-77
2023/02/15 10:53:40;;;;;;;;;;;;;;;11.39;35.53;96227.38;5067055;28;19958;-77
2023/02/15 10:56:20;;;;;;;;;;;;;;;12.60;33.86;96226.94;5068583;28;19963;-76
2023/02/15 10:59:04;;;;;;;;;;;;;;;15.42;29.10;96230.00;5068969;28;19912;-76
2023/02/15 11:01:33;;;;;;;;;;;;;;;15.89;28.08;96221.19;5068662;28;19948;-77
2023/02/15 11:03:58;;;;;;;;;;;;;;;16.94;27.21;96229.44;5050420;28;19970;-76
2023/02/15 11:06:23;;;;;;;;;;;;;;;18.62;24.44;96228.91;5067544;28;20133;-76
2023/02/15 11:09:00;;;;;;;;;;;;;;;18.57;24.23;96221.16;5068524;28;19912;-76
2023/02/15 11:11:32;;;;;;;;;;;;;;;20.18;22.28;96226.25;5067021;28;19913;-76
2023/02/15 11:13:58;;;;;;;;;;;;;;;20.43;21.78;96223.09;5067089;28;19960;-78
2023/02/15 11:16:32;;;;;;;;;;;;;;;20.01;21.84;96228.59;5066825;28;19916;-78
2023/02/15 11:18:58;;;;;;;;;;;;;;;19.05;22.84;96227.97;5066323;28;19919;-77
2023/02/15 11:21:38;;;;;;;;;;;;;;;16.77;25.77;96227.25;5049985;28;20406;-76
2023/02/15 11:24:13;;;;;;;;;;;;;;;14.88;28.37;96222.31;5067200;28;19912;-77
2023/02/15 11:26:41;;;;;;;;;;;;;;;16.07;27.01;96221.44;5066531;28;20033;-77
2023/02/15 11:29:12;;;;;;;;;;;;;;;16.16;27.17;96218.00;5066740;28;20015;-76
2023/02/15 11:31:44;;;;;;;;;;;;;;;15.44;28.20;96216.50;5067765;28;19912;-76
2023/02/15 11:34:32;;;;;;;;;;;;;;;17.33;25.21;96226.56;5069640;28;19912;-76
2023/02/15 11:37:05;;;;;;;;;;;;;;;18.51;23.65;96212.63;5066709;28;20376;-76
2023/02/15 11:39:31;;;;;;;;;;;;;;;19.45;22.62;96212.38;5066002;28;19916;-75
2023/02/15 11:41:57;;;;;;;;;;;;;;;19.84;21.98;96211.47;5066238;28;19916;-76
2023/02/15 11:44:39;;;;;;;;;;;;;;;20.43;21.09;96211.91;5067524;28;19913;-76
2023/02/15 11:47:08;;;;;;;;;;;;;;;21.36;20.46;96218.59;5072135;28;19935;-76
2023/02/15 11:49:34;;;;;;;;;;;;;;;21.91;19.66;96212.53;5066335;28;19999;-76
2023/02/15 11:52:00;;;;;;;;;;;;;;;22.62;19.19;96207.88;5067444;28;20410;-76
2023/02/15 11:54:33;;;;;;;;;;;;;;;23.24;18.22;96209.56;5065808;28;19913;-78
2023/02/15 11:57:04;;;;;;;;;;;;;;;22.76;18.21;96203.50;5067322;28;19955;-77
2023/02/15 11:59:33;;;;;;;;;;;;;;;22.29;18.98;96198.94;5067251;28;20378;-77
2023/02/15 12:01:58;;;;;;;;;;;;;;;21.89;19.45;96195.44;5065739;28;19920;-76
2023/02/15 12:04:39;;;;;;;;;;;;;;;21.82;19.60;96190.22;5066821;28;19913;-77
2023/02/15 12:07:04;;;;;;;;;;;;;;;21.99;19.04;96185.69;5065818;28;20380;-76
2023/02/15 12:09:49;;;;;;;;;;;;;;;21.94;19.14;96180.75;5066765;28;20383;-76
2023/02/15 12:12:22;;;;;;;;;;;;;;;20.43;20.85;96172.81;5065642;28;19917;-77
2023/02/15 12:14:48;;;;;;;;;;;;;;;18.86;22.62;96167.88;5066531;28;19912;-77
2023/02/15 12:17:13;;;;;;;;;;;;;;;17.29;24.58;96178.66;5066756;28;19912;-77
2023/02/15 12:19:42;;;;;;;;;;;;;;;15.82;26.52;96165.94;5066732;28;20039;-76
2023/02/15 12:22:17;;;;;;;;;;;;;;;14.46;28.81;96161.25;5065785;28;19912;-77
2023/02/15 12:24:46;;;;;;;;;;;;;;;13.22;30.77;96168.31;5065994;28;20560;-76
2023/02/15 12:27:15;;;;;;;;;;;;;;;12.50;32.04;96165.25;5065285;28;19916;-76
2023/02/15 12:29:42;;;;;;;;;;;;;;;12.01;32.98;96153.03;5065767;28;20253;-77
2023/02/15 12:32:11;;;;;;;;;;;;;;;11.36;34.11;96153.91;5069035;28;19985;-77
2023/02/15 12:34:39;;;;;;;;;;;;;;;10.76;35.32;96155.34;5065317;28;19990;-78
2023/02/15 12:37:24;;;;;;;;;;;;;;;10.78;35.45;96146.69;5065029;28;19919;-76
2023/02/15 12:39:51;;;;;;;;;;;;;;;10.42;36.23;96149.00;5066014;28;19927;-76
2023/02/15 12:42:19;;;;;;;;;;;;;;;10.09;36.61;96137.44;5064979;28;19916;-76
2023/02/15 12:45:01;;;;;;;;;;;;;;;9.85;37.19;96128.22;5048356;28;20006;-77
2023/02/15 12:47:27;;;;;;;;;;;;;;;9.57;37.93;96129.16;5065033;28;19992;-76
2023/02/15 12:50:27;;;;;;;;;;;;;;;9.62;37.81;96117.00;5065005;28;19952;-76
2023/02/15 12:53:05;;;;;;;;;;;;;;;9.50;38.11;96121.75;5043603;28;19916;-77
2023/02/15 12:55:31;;;;;;;;;;;;;;;9.11;39.09;96116.47;5043729;28;19923;-78
2023/02/15 12:58:14;;;;;;;;;;;;;;;8.93;39.51;96124.75;5043641;28;19912;-76
2023/02/15 13:00:39;;;;;;;;;;;;;;;9.00;39.37;96116.53;5042965;28;20462;-77
2023/02/15 13:03:04;;;;;;;;;;;;;;;9.09;39.28;96113.34;5043769;28;20003;-77
2023/02/15 13:05:36;;;;;;;;;;;;;;;8.92;39.46;96119.69;5043696;28;20323;-77
2023/02/15 13:08:02;;;;;;;;;;;;;;;8.87;39.61;96117.34;5043931;28;19957;-77
2023/02/15 13:10:29;;;;;;;;;;;;;;;8.72;39.78;96114.66;5042745;28;19968;-77
2023/02/15 13:12:55;;;;;;;;;;;;;;;8.59;39.93;96112.72;5043653;28;19913;-76
2023/02/15 13:15:24;;;;;;;;;;;;;;;8.61;40.26;96116.66;5043059;28;20001;-77
2023/02/15 13:17:50;;;;;;;;;;;;;;;8.61;40.29;96119.41;5043360;28;19918;-76
2023/02/15 13:20:16;;;;;;;;;;;;;;;8.54;40.54;96108.44;5043350;28;20462;-78
2023/02/15 13:22:43;;;;;;;;;;;;;;;8.58;40.38;96109.22;5026653;28;19951;-77
2023/02/15 13:25:28;;;;;;;;;;;;;;;8.55;40.57;96110.00;5043622;28;19912;-77